sim
Sign-in with your pilot id or email,
or register
Callsign
Passwort

Schedule Details

Flight Number: OEC42710
Departure: Paris Charles de Gaulle Airport (LFPG) at Time
Arrival: Munich Airport (EDDM) at Time

Weather Information
Getting current METAR information for LFPG 191600Z 10012KT CAVOK 28/14 Q1012 NOSIG
Getting current METAR information for EDDM 191550Z 05003KT 020V080 CAVOK 21/12 Q1017 NOSIG

Schedule Frequency

Route Map